Redlawn, Texas
Current Conditions -  °F | °C
As of 4:15 PM on Thursday 18 Dec 2014 (Local Time) from KJSO Reporting Station
Haze Haze  
Wind Chill: 51°   Ceiling: 300
Heat Index: 51°   Visibility: 1mi
Dew Point: 50°   Wind: 6mph
Humidity: 97%   Direction: 20°NNE
Pressure: 30.11"   Gusts: NA
Location:  31.6384°N, 95.0772°W
Report Text: KJSO 182215Z AUTO 02005KT 1SM BR OVC003 10/10 A3011 RMK AO2 T01050100
Loading
Personal Weather Stations






























Interactive Weather Map New forecast layout! Learn more

10-Day Weather Forecast

Advertisements
Track Severe Weather on mobile